Time;durP1;ratioP1;P1;durP2;ratioP2;P2;SDS_P1;SDS_P2;PMS_P1;PMS_P2;Temp;Humidity;BMP_temperature;BMP_pressure;BME280_temperature;BME280_humidity;BME280_pressure;Samples;Min_cycle;Max_cycle;Signal;HPM_P1;HPM_P2
2023/09/20 00:00:36;;;;;;;5.50;5.00;;;19.10;99.90;;;19.50;75.87;95201.97;5013675;28;20473;-61
2023/09/20 00:03:06;;;;;;;9.10;6.07;;;19.10;99.90;;;19.51;76.02;95192.94;5015611;28;20460;-64
2023/09/20 00:05:33;;;;;;;6.10;5.50;;;19.10;99.90;;;19.52;75.85;95196.47;5005712;28;20474;-62
2023/09/20 00:08:03;;;;;;;6.47;5.87;;;19.10;99.90;;;19.53;76.07;95198.09;5008303;28;20572;-61
2023/09/20 00:10:31;;;;;;;9.83;6.53;;;19.10;99.90;;;19.51;75.70;95200.13;5006740;28;20857;-58
2023/09/20 00:12:58;;;;;;;7.13;6.13;;;19.10;99.90;;;19.51;76.29;95200.13;5014975;28;20457;-59
2023/09/20 00:15:25;;;;;;;10.57;5.60;;;19.10;99.90;;;19.50;76.17;95207.31;5013462;28;20485;-59
2023/09/20 00:17:54;;;;;;;7.93;6.80;;;19.10;99.90;;;19.49;75.80;95199.50;5011361;28;20501;-64
2023/09/20 00:20:23;;;;;;;8.50;7.00;;;19.10;99.90;;;19.47;76.03;95204.19;5006172;28;20470;-59
2023/09/20 00:22:50;;;;;;;8.70;6.53;;;19.10;99.90;;;19.45;76.40;95207.03;5007261;28;20878;-64
2023/09/20 00:25:17;;;;;;;7.20;6.50;;;19.00;99.90;;;19.42;76.03;95210.06;5017166;28;20501;-64
2023/09/20 00:27:46;;;;;;;8.40;6.57;;;19.00;99.90;;;19.41;76.12;95210.25;5018507;28;20492;-66
2023/09/20 00:30:15;;;;;;;14.67;6.87;;;19.00;99.90;;;19.39;76.24;95210.44;5013065;28;20469;-65
2023/09/20 00:32:42;;;;;;;6.40;5.80;;;19.00;99.90;;;19.41;75.87;95212.91;5019929;28;20946;-63
2023/09/20 00:35:11;;;;;;;16.97;6.47;;;19.00;99.90;;;19.38;76.17;95208.81;5009972;28;21130;-60
2023/09/20 00:37:40;;;;;;;8.17;6.30;;;19.00;99.90;;;19.36;75.81;95216.16;5013931;28;20529;-59
2023/09/20 00:40:15;;;;;;;6.67;6.03;;;19.00;99.90;;;19.32;76.30;95202.38;5011720;28;20484;-59
2023/09/20 00:42:43;;;;;;;9.47;8.00;;;18.90;99.90;;;19.28;76.42;95201.06;5011230;28;20461;-59
2023/09/20 00:45:12;;;;;;;7.03;6.37;;;18.90;99.90;;;19.25;76.02;95209.44;5009483;28;20488;-60
2023/09/20 00:47:41;;;;;;;10.53;7.00;;;18.80;99.90;;;19.22;76.59;95199.16;5015983;28;20458;-64
2023/09/20 00:50:12;;;;;;;14.30;7.70;;;18.80;99.90;;;19.19;76.42;95199.53;5011756;28;21075;-60
2023/09/20 00:52:42;;;;;;;7.37;5.97;;;18.80;99.90;;;19.15;76.10;95198.25;5016551;28;21054;-60
2023/09/20 00:55:12;;;;;;;6.47;5.77;;;18.70;99.90;;;19.12;76.22;95195.97;5016230;28;20825;-65
2023/09/20 00:57:39;;;;;;;8.17;7.20;;;18.70;99.90;;;19.10;76.33;95203.28;5017133;28;20504;-64
2023/09/20 01:00:19;;;;;;;10.20;7.30;;;18.70;99.90;;;19.05;76.68;95205.69;5010314;28;20489;-63
2023/09/20 01:02:49;;;;;;;10.40;6.87;;;18.70;99.90;;;19.01;76.71;95199.06;5008269;28;20446;-64
2023/09/20 01:05:19;;;;;;;8.30;7.50;;;18.60;99.90;;;18.97;76.51;95204.75;5006731;28;20480;-60
2023/09/20 01:07:50;;;;;;;8.90;7.13;;;18.60;99.90;;;18.94;76.53;95199.78;5007220;28;20528;-64
2023/09/20 01:10:22;;;;;;;12.43;8.83;;;18.60;99.90;;;18.93;76.69;95205.31;5013401;28;20481;-64
2023/09/20 01:12:53;;;;;;;8.70;7.67;;;18.50;99.90;;;18.89;77.08;95204.88;5020354;28;20461;-59
2023/09/20 01:15:21;;;;;;;12.07;7.77;;;18.50;99.90;;;18.88;76.81;95205.88;5016256;28;20491;-66
2023/09/20 01:17:49;;;;;;;10.33;9.30;;;18.50;99.90;;;18.86;77.42;95191.91;5008994;28;20813;-65
2023/09/20 01:20:18;;;;;;;10.30;8.37;;;18.50;99.90;;;18.86;77.51;95191.91;5012493;28;21013;-65
2023/09/20 01:22:47;;;;;;;15.77;9.00;;;18.50;99.90;;;18.84;77.15;95191.25;5011102;28;22500;-63
2023/09/20 01:25:22;;;;;;;10.63;8.83;;;18.40;99.90;;;18.84;77.08;95195.72;5016449;28;21073;-61
2023/09/20 01:27:50;;;;;;;12.13;8.97;;;18.50;99.90;;;18.82;77.55;95193.25;5018653;28;20484;-64
2023/09/20 01:30:17;;;;;;;14.90;8.90;;;18.50;99.90;;;18.81;77.75;95197.75;5019349;28;20551;-60
2023/09/20 01:32:45;;;;;;;10.23;8.20;;;18.40;99.90;;;18.81;77.00;95200.41;5019220;28;20530;-63
2023/09/20 01:35:16;;;;;;;13.73;9.20;;;18.40;99.90;;;18.81;77.17;95194.25;5017241;28;20505;-64
2023/09/20 01:37:44;;;;;;;12.67;8.23;;;18.40;99.90;;;18.80;77.26;95205.94;5017450;28;20967;-58
2023/09/20 01:40:15;;;;;;;8.77;7.77;;;18.40;99.90;;;18.77;78.01;95203.63;5018247;28;20521;-65
2023/09/20 01:42:44;;;;;;;16.63;8.20;;;18.40;99.90;;;18.77;77.33;95204.44;5020540;28;20810;-64
2023/09/20 01:45:14;;;;;;;10.63;8.47;;;18.40;99.90;;;18.75;77.49;95203.81;5017722;28;20512;-59
2023/09/20 01:47:44;;;;;;;11.23;8.00;;;18.40;99.90;;;18.74;77.83;95196.81;5018103;28;20546;-59
2023/09/20 01:50:13;;;;;;;9.93;7.90;;;18.40;99.90;;;18.72;78.17;95198.03;5016303;28;20535;-59
2023/09/20 01:52:41;;;;;;;13.17;8.50;;;18.30;99.90;;;18.72;77.43;95193.50;5016762;28;20500;-65
2023/09/20 01:55:15;;;;;;;9.73;7.43;;;18.30;99.90;;;18.71;77.59;95191.84;5012597;28;20574;-64
2023/09/20 01:57:45;;;;;;;8.07;7.27;;;18.30;99.90;;;18.70;78.34;95197.34;5014764;28;20515;-64
2023/09/20 02:00:22;;;;;;;11.40;8.27;;;18.30;99.90;;;18.68;77.69;95194.06;5009067;28;20498;-61
2023/09/20 02:02:51;;;;;;;12.07;8.23;;;18.30;99.90;;;18.63;78.30;95192.75;5013552;28;20452;-63
2023/09/20 02:05:18;;;;;;;18.00;9.50;;;18.30;99.90;;;18.61;77.49;95194.78;5014789;28;20557;-59
2023/09/20 02:07:47;;;;;;;10.30;9.17;;;18.20;99.90;;;18.57;77.92;95193.47;5018107;28;20510;-64
2023/09/20 02:10:16;;;;;;;16.60;11.03;;;18.20;99.90;;;18.53;78.07;95188.69;5016666;28;20516;-63
2023/09/20 02:12:47;;;;;;;17.03;9.67;;;18.20;99.90;;;18.48;77.77;95183.91;5010508;28;20451;-60
2023/09/20 02:15:15;;;;;;;17.30;10.00;;;18.10;99.90;;;18.45;78.72;95189.59;5017321;28;21061;-59
2023/09/20 02:17:42;;;;;;;11.90;9.17;;;18.10;99.90;;;18.41;78.37;95194.47;5014233;28;20490;-61
2023/09/20 02:20:10;;;;;;;14.80;10.77;;;18.00;99.90;;;18.41;78.80;95199.81;5013173;28;20542;-65
2023/09/20 02:22:38;;;;;;;18.70;11.73;;;18.00;99.90;;;18.44;78.71;95195.97;5010895;28;20499;-65
2023/09/20 02:25:10;;;;;;;46.57;13.33;;;18.00;99.90;;;18.43;78.37;95196.97;5021545;28;20473;-63
2023/09/20 02:27:38;;;;;;;21.03;13.47;;;18.10;99.90;;;18.46;79.00;95207.25;5010735;28;20445;-63
2023/09/20 02:30:10;;;;;;;18.90;13.70;;;18.00;99.90;;;18.46;78.55;95207.25;5017325;28;20481;-58
2023/09/20 02:32:38;;;;;;;19.07;13.70;;;18.10;99.90;;;18.46;78.71;95209.91;5019103;28;20970;-60
2023/09/20 02:35:07;;;;;;;19.57;13.40;;;18.10;99.90;;;18.48;78.63;95209.72;5017060;28;20556;-60
2023/09/20 02:37:35;;;;;;;22.00;13.27;;;18.10;99.90;;;18.48;79.46;95207.06;5018544;28;20444;-61
2023/09/20 02:40:07;;;;;;;18.13;12.33;;;18.10;99.90;;;18.47;79.36;95203.59;5019038;28;20575;-66
2023/09/20 02:42:40;;;;;;;17.17;12.47;;;18.10;99.90;;;18.51;78.99;95209.38;5014954;28;20473;-60
2023/09/20 02:45:12;;;;;;;20.60;13.67;;;18.10;99.90;;;18.51;78.63;95199.53;5012099;28;20508;-64
2023/09/20 02:47:40;;;;;;;18.90;13.10;;;18.10;99.90;;;18.52;78.96;95197.72;5014587;28;20953;-58
2023/09/20 02:50:11;;;;;;;15.93;12.57;;;18.10;99.90;;;18.53;78.71;95202.00;5019474;28;20572;-64
2023/09/20 02:52:39;;;;;;;19.00;12.43;;;18.10;99.90;;;18.52;79.01;95209.19;5008480;28;20908;-65
2023/09/20 02:55:08;;;;;;;21.30;12.37;;;18.10;99.90;;;18.51;78.92;95218.19;5013511;28;20472;-64
2023/09/20 02:57:37;;;;;;;18.13;13.40;;;18.10;99.90;;;18.51;79.41;95220.84;5014436;28;20837;-59
2023/09/20 03:00:14;;;;;;;14.93;11.60;;;18.10;99.90;;;18.49;79.09;95217.53;5002839;28;20493;-63
2023/09/20 03:02:45;;;;;;;23.30;13.27;;;18.10;99.90;;;18.46;79.01;95217.91;5011575;28;20453;-58
2023/09/20 03:05:15;;;;;;;16.30;13.30;;;18.10;99.90;;;18.46;78.96;95207.25;5008111;28;20557;-59
2023/09/20 03:07:44;;;;;;;17.20;13.00;;;18.10;99.90;;;18.45;79.33;95211.75;5013133;28;20466;-64
2023/09/20 03:10:13;;;;;;;17.10;13.40;;;18.10;99.90;;;18.43;79.03;95208.47;5013862;28;20484;-59
2023/09/20 03:12:43;;;;;;;19.30;12.60;;;18.10;99.90;;;18.42;78.95;95208.63;5012399;28;20985;-64
2023/09/20 03:15:12;;;;;;;15.77;12.10;;;18.00;99.90;;;18.40;79.21;95211.47;5014028;28;20481;-65
2023/09/20 03:17:40;;;;;;;27.63;13.40;;;18.00;99.90;;;18.39;79.25;95209.00;5016674;28;20454;-64
2023/09/20 03:20:13;;;;;;;23.90;12.77;;;18.00;99.90;;;18.36;79.30;95212.03;5009449;28;20498;-60
2023/09/20 03:22:41;;;;;;;18.00;12.33;;;18.00;99.90;;;18.39;79.00;95212.47;5012135;28;20472;-60
2023/09/20 03:25:13;;;;;;;18.23;12.80;;;18.00;99.90;;;18.40;79.62;95210.63;5013142;28;20481;-60
2023/09/20 03:27:42;;;;;;;15.13;12.17;;;18.00;99.90;;;18.43;79.69;95212.94;5021880;28;20561;-59
2023/09/20 03:30:13;;;;;;;17.23;11.80;;;18.00;99.90;;;18.46;79.11;95212.56;5017950;28;20828;-61
2023/09/20 03:32:42;;;;;;;23.27;12.10;;;18.10;99.90;;;18.49;79.09;95214.88;5008596;28;20517;-61
2023/09/20 03:35:11;;;;;;;19.30;10.97;;;18.10;99.90;;;18.52;78.88;95214.53;5015127;28;20995;-60
2023/09/20 03:37:39;;;;;;;15.40;10.60;;;18.10;99.90;;;18.56;79.39;95213.16;5017672;28;20453;-65
2023/09/20 03:40:10;;;;;;;10.53;9.43;;;18.20;99.90;;;18.60;79.36;95206.44;5017272;28;20501;-65
2023/09/20 03:42:40;;;;;;;19.27;10.30;;;18.20;99.90;;;18.63;79.02;95213.25;5009138;28;21154;-64
2023/09/20 03:45:10;;;;;;;21.90;11.67;;;18.20;99.90;;;18.66;79.36;95201.41;5013269;28;20932;-60
2023/09/20 03:47:37;;;;;;;20.00;13.27;;;18.20;99.90;;;18.69;79.19;95207.19;5016089;28;20479;-61
2023/09/20 03:50:05;;;;;;;17.90;12.23;;;18.30;99.90;;;18.72;78.81;95206.03;5013091;28;21036;-61
2023/09/20 03:52:33;;;;;;;12.53;10.80;;;18.30;99.90;;;18.73;78.71;95205.00;5013659;28;20457;-65
2023/09/20 03:55:02;;;;;;;21.17;11.60;;;18.30;99.90;;;18.75;79.05;95208.31;5014893;28;20493;-64
2023/09/20 03:57:29;;;;;;;17.20;11.33;;;18.30;99.90;;;18.77;79.08;95206.28;5014491;28;20454;-65
2023/09/20 03:59:58;;;;;;;20.90;11.47;;;18.30;99.90;;;18.78;79.11;95205.28;5005157;28;20523;-61
2023/09/20 04:02:25;;;;;;;16.10;11.33;;;18.40;99.90;;;18.79;78.64;95215.78;5005966;28;20490;-60
2023/09/20 04:04:53;;;;;;;23.57;12.83;;;18.40;99.90;;;18.82;79.17;95209.22;5006986;28;20474;-60
2023/09/20 04:07:23;;;;;;;16.47;12.57;;;18.40;99.90;;;18.83;78.49;95216.22;5005658;28;20465;-61
2023/09/20 04:09:52;;;;;;;25.43;14.07;;;18.40;99.90;;;18.84;78.78;95207.22;5009897;28;20465;-63
2023/09/20 04:12:19;;;;;;;25.00;13.70;;;18.40;99.90;;;18.84;78.84;95204.56;5006919;28;20458;-63
2023/09/20 04:14:46;;;;;;;23.03;13.50;;;18.40;99.90;;;18.87;78.79;95203.38;5017567;28;20531;-61
2023/09/20 04:17:14;;;;;;;20.93;14.53;;;18.50;99.90;;;18.88;78.22;95202.38;5011324;28;20868;-62
2023/09/20 04:19:42;;;;;;;23.30;14.80;;;18.50;99.90;;;18.86;78.67;95207.88;4999548;28;20584;-62
2023/09/20 04:22:10;;;;;;;21.40;13.83;;;18.50;99.90;;;18.89;78.35;95209.38;5006235;28;20855;-61
2023/09/20 04:24:37;;;;;;;21.47;13.90;;;18.50;99.90;;;18.91;78.34;95216.16;5012313;28;20997;-61
2023/09/20 04:27:08;;;;;;;20.43;12.60;;;18.50;99.90;;;18.93;78.80;95202.66;5008567;28;20456;-60
2023/09/20 04:29:36;;;;;;;21.13;13.53;;;18.50;99.90;;;18.95;78.66;95205.97;5003685;28;20496;-63
2023/09/20 04:32:04;;;;;;;25.93;15.57;;;18.50;99.90;;;18.98;78.51;95210.94;5002956;28;20461;-60
2023/09/20 04:34:32;;;;;;;25.07;14.30;;;18.60;99.90;;;18.99;78.56;95212.56;5007875;28;20641;-59
2023/09/20 04:37:01;;;;;;;30.20;14.63;;;18.60;99.90;;;18.99;78.28;95226.75;5012929;28;20900;-60
2023/09/20 04:39:28;;;;;;;31.77;14.90;;;18.60;99.90;;;18.97;77.96;95219.94;5010604;28;20497;-60
2023/09/20 04:41:56;;;;;;;27.27;15.70;;;18.60;99.90;;;18.97;77.45;95220.75;5011057;28;20545;-64
2023/09/20 04:44:25;;;;;;;25.60;14.13;;;18.60;99.90;;;18.95;77.54;95228.13;5017562;28;20532;-62
2023/09/20 04:46:52;;;;;;;25.70;14.33;;;18.60;99.90;;;18.91;77.81;95215.34;5017952;28;20547;-64
2023/09/20 04:49:20;;;;;;;25.63;13.90;;;18.50;99.90;;;18.87;77.11;95224.69;5013364;28;20550;-63
2023/09/20 04:51:48;;;;;;;23.80;14.43;;;18.50;99.90;;;18.83;77.57;95218.88;5016929;28;20449;-61
2023/09/20 04:54:15;;;;;;;19.10;13.97;;;18.50;99.90;;;18.82;77.81;95219.88;5003896;28;20484;-61
2023/09/20 04:56:47;;;;;;;24.83;14.67;;;18.50;99.90;;;18.81;77.84;95231.56;5011134;28;20460;-65
2023/09/20 04:59:15;;;;;;;35.80;15.20;;;18.40;99.90;;;18.83;77.83;95234.06;5015227;28;20475;-60
2023/09/20 05:01:44;;;;;;;25.40;13.90;;;18.50;99.90;;;18.83;77.65;95229.53;5016876;28;20488;-60
2023/09/20 05:04:13;;;;;;;29.97;15.00;;;18.50;99.90;;;18.84;78.03;95241.03;5019892;28;20491;-59
2023/09/20 05:06:42;;;;;;;25.90;14.57;;;18.50;99.90;;;18.86;78.14;95228.41;5012562;28;20465;-63
2023/09/20 05:09:09;;;;;;;28.13;14.80;;;18.50;99.90;;;18.87;77.89;95230.88;5014250;28;20547;-61
2023/09/20 05:11:37;;;;;;;35.23;15.60;;;18.50;99.90;;;18.88;78.11;95229.84;5021146;28;20503;-61
2023/09/20 05:14:05;;;;;;;27.57;15.83;;;18.50;99.90;;;18.92;78.11;95233.00;5008089;28;20478;-61
2023/09/20 05:16:32;;;;;;;27.93;15.63;;;18.50;99.90;;;18.92;77.90;95241.00;4988739;28;20975;-59
2023/09/20 05:19:01;;;;;;;24.27;13.47;;;18.50;99.90;;;18.93;77.41;95243.47;5014601;28;20492;-60
2023/09/20 05:21:28;;;;;;;22.70;13.43;;;18.50;99.90;;;18.93;77.52;95243.47;5012057;28;20501;-61
2023/09/20 05:23:55;;;;;;;32.33;15.27;;;18.50;99.90;;;18.94;76.99;95242.44;5006320;28;20488;-60
2023/09/20 05:26:23;;;;;;;24.67;15.10;;;18.50;99.90;;;18.92;77.45;95247.16;5007474;28;20993;-61
2023/09/20 05:28:50;;;;;;;27.10;13.83;;;18.50;99.90;;;18.93;76.92;95254.13;5005261;28;20529;-62
2023/09/20 05:31:17;;;;;;;17.97;12.80;;;18.60;99.90;;;18.95;77.13;95252.13;5008801;28;20489;-60
2023/09/20 05:33:45;;;;;;;17.30;13.00;;;18.60;99.90;;;18.97;77.33;95258.06;5009905;28;20473;-59
2023/09/20 05:36:14;;;;;;;29.37;13.83;;;18.60;99.90;;;18.98;76.88;95264.25;5009722;28;20571;-60
2023/09/20 05:38:41;;;;;;;29.53;15.43;;;18.60;99.90;;;19.00;77.19;95262.22;5010663;28;20946;-60
2023/09/20 05:41:10;;;;;;;30.37;15.57;;;18.60;99.90;;;18.99;77.63;95263.22;5014160;28;20580;-60
2023/09/20 05:43:39;;;;;;;23.07;14.53;;;18.60;99.90;;;18.99;76.96;95268.56;5015134;28;20454;-59
2023/09/20 05:46:07;;;;;;;30.33;15.73;;;18.60;99.90;;;18.98;76.83;95269.59;5010496;28;20462;-59
2023/09/20 05:48:36;;;;;;;30.23;14.57;;;18.60;99.90;;;18.96;77.22;95272.44;5013457;28;20457;-59
2023/09/20 05:51:03;;;;;;;34.37;16.90;;;18.60;99.90;;;18.95;76.76;95277.94;5017718;28;20489;-61
2023/09/20 05:53:33;;;;;;;25.50;15.77;;;18.60;99.90;;;18.93;77.32;95278.13;5015448;28;20492;-60
2023/09/20 05:56:08;;;;;;;29.03;15.37;;;18.60;99.90;;;18.94;77.30;95279.75;5016105;28;20469;-61
2023/09/20 05:58:35;;;;;;;30.47;16.07;;;18.50;99.90;;;18.95;76.83;95285.94;5011534;28;20467;-61
2023/09/20 06:01:02;;;;;;;26.73;16.00;;;18.60;99.90;;;18.96;77.34;95285.75;5015747;28;20501;-61
2023/09/20 06:03:30;;;;;;;27.20;16.47;;;18.60;99.90;;;18.98;77.23;95285.59;5014814;28;20460;-59
2023/09/20 06:05:57;;;;;;;27.77;16.97;;;18.60;99.90;;;19.00;76.99;95288.88;5008042;28;20458;-60
2023/09/20 06:08:25;;;;;;;26.67;16.83;;;18.60;99.90;;;19.03;76.58;95288.53;5010059;28;20955;-60
2023/09/20 06:10:53;;;;;;;28.00;16.13;;;18.60;99.90;;;19.03;76.81;95291.19;5001490;28;20568;-60
2023/09/20 06:13:21;;;;;;;28.70;16.57;;;18.70;99.90;;;19.02;76.62;95289.53;5004699;28;20991;-59
2023/09/20 06:15:49;;;;;;;35.60;18.27;;;18.60;99.90;;;18.98;76.62;95286.41;5007505;28;20508;-61
2023/09/20 06:18:22;;;;;;;30.77;15.30;;;18.60;99.90;;;18.93;76.81;95280.78;5007881;28;20458;-60
2023/09/20 06:20:51;;;;;;;37.43;16.87;;;18.60;99.90;;;18.90;76.59;95281.16;5017634;28;20481;-60
2023/09/20 06:23:19;;;;;;;35.67;16.73;;;18.60;99.90;;;18.90;76.85;95282.97;5021451;28;20465;-62
2023/09/20 06:25:47;;;;;;;33.17;17.97;;;18.50;99.90;;;18.89;76.61;95284.81;5021801;28;20989;-61
2023/09/20 06:28:16;;;;;;;30.97;16.13;;;18.50;99.90;;;18.90;76.40;95288.31;5019553;28;20519;-59
2023/09/20 06:30:44;;;;;;;29.97;16.07;;;18.50;99.90;;;18.95;77.43;95286.75;5023123;28;20846;-60
2023/09/20 06:33:12;;;;;;;27.03;16.97;;;18.60;99.90;;;19.00;76.87;95288.88;5019420;28;20458;-61
2023/09/20 06:35:41;;;;;;;29.50;15.80;;;18.60;99.90;;;19.10;77.16;95291.28;5018149;28;20489;-60
2023/09/20 06:38:09;;;;;;;29.23;15.83;;;18.70;99.90;;;19.19;77.26;95292.84;5022916;28;20548;-62
2023/09/20 06:40:38;;;;;;;37.30;18.33;;;18.80;99.90;;;19.24;76.98;95293.16;5020864;28;20528;-59
2023/09/20 06:43:07;;;;;;;29.43;19.57;;;18.80;99.90;;;19.29;76.48;95292.59;5019437;28;20561;-59
2023/09/20 06:45:37;;;;;;;28.50;18.30;;;18.90;99.90;;;19.33;76.15;95300.06;5022390;28;20571;-61
2023/09/20 06:48:06;;;;;;;32.70;17.70;;;18.90;99.90;;;19.39;76.28;95303.00;5020419;28;20441;-61
2023/09/20 06:50:33;;;;;;;28.23;18.20;;;19.00;99.90;;;19.43;76.20;95298.94;5022387;28;21024;-61
2023/09/20 06:53:00;;;;;;;39.73;19.33;;;19.10;99.90;;;19.47;76.01;95306.41;5017994;28;20468;-62
2023/09/20 06:55:28;;;;;;;32.77;18.33;;;19.10;99.90;;;19.50;76.13;95314.03;5011923;28;20535;-60
2023/09/20 06:57:55;;;;;;;26.00;17.00;;;19.10;99.90;;;19.59;75.91;95303.25;5021951;28;20454;-63
2023/09/20 07:00:25;;;;;;;34.87;19.70;;;19.20;99.90;;;19.67;76.11;95317.34;5016251;28;20567;-61
2023/09/20 07:02:55;;;;;;;37.37;18.07;;;19.30;99.90;;;19.76;75.55;95318.06;5021935;28;20551;-60
2023/09/20 07:05:24;;;;;;;32.07;18.00;;;19.40;99.90;;;19.85;75.46;95324.16;5016082;28;20479;-64
2023/09/20 07:07:52;;;;;;;35.80;19.13;;;19.40;99.90;;;19.96;75.45;95312.19;5014328;28;20559;-65
2023/09/20 07:10:19;;;;;;;29.70;18.30;;;19.50;99.90;;;20.05;74.94;95316.41;5011153;28;20485;-65
2023/09/20 07:12:46;;;;;;;35.30;18.17;;;19.60;99.90;;;20.18;74.82;95315.72;5012573;28;20450;-65
2023/09/20 07:15:15;;;;;;;30.00;17.93;;;19.70;99.90;;;20.31;74.33;95313.19;5017313;28;20547;-64
2023/09/20 07:17:43;;;;;;;37.23;19.90;;;19.90;99.90;;;20.43;74.03;95313.50;5005404;28;20464;-65
2023/09/20 07:20:15;;;;;;;38.73;19.07;;;20.00;99.90;;;20.58;73.59;95321.47;5009401;28;20481;-64
2023/09/20 07:22:46;;;;;;;31.30;19.90;;;20.10;99.90;;;20.71;73.37;95324.31;5010576;28;20454;-66
2023/09/20 07:25:19;;;;;;;27.73;17.93;;;20.30;99.90;;;20.84;72.89;95318.25;5004712;28;20477;-64
2023/09/20 07:27:47;;;;;;;31.60;18.77;;;20.40;99.90;;;20.93;72.68;95327.78;5012447;28;20562;-65
2023/09/20 07:30:17;;;;;;;32.00;19.00;;;20.50;99.90;;;21.03;72.52;95331.97;5011008;28;20909;-64
2023/09/20 07:32:46;;;;;;;35.87;20.00;;;20.60;99.90;;;21.10;72.01;95339.03;5008116;28;20837;-65
2023/09/20 07:35:36;;;;;;;31.03;18.67;;;20.70;99.90;;;21.19;71.87;95331.66;5012642;28;20477;-62
2023/09/20 07:38:05;;;;;;;29.73;18.40;;;20.70;99.90;;;21.30;71.13;95331.16;5015728;28;20924;-64
2023/09/20 07:40:33;;;;;;;27.57;18.60;;;20.90;99.90;;;21.45;70.94;95331.03;5017434;28;21029;-64
2023/09/20 07:43:04;;;;;;;30.00;18.93;;;21.00;99.90;;;21.61;70.58;95324.59;5012121;28;21032;-63
2023/09/20 07:45:37;;;;;;;32.27;18.13;;;21.20;99.90;;;21.75;70.17;95327.31;5009266;28;20850;-64
2023/09/20 07:48:12;;;;;;;28.40;18.87;;;21.30;99.90;;;21.92;69.59;95325.97;5010970;28;20477;-64
2023/09/20 07:50:41;;;;;;;34.03;18.83;;;21.50;99.90;;;22.04;69.49;95328.88;5016605;28;20476;-65
2023/09/20 07:53:10;;;;;;;30.87;18.87;;;21.60;99.90;;;22.28;68.98;95322.19;5017613;28;20458;-63
2023/09/20 07:55:45;;;;;;;28.33;18.30;;;21.80;99.90;;;22.75;68.78;95330.34;5016256;28;20484;-65
2023/09/20 07:58:14;;;;;;;25.30;18.17;;;22.20;99.90;;;23.13;67.80;95320.88;5013710;28;20457;-64
2023/09/20 08:00:44;;;;;;;31.73;19.57;;;22.60;99.90;;;23.38;66.67;95324.59;5021029;28;20492;-64
2023/09/20 08:03:11;;;;;;;31.43;20.73;;;22.90;99.90;;;23.52;65.40;95314.66;5016872;28;20448;-61
2023/09/20 08:05:41;;;;;;;28.67;19.60;;;23.10;99.90;;;23.60;65.25;95317.13;5017134;28;20476;-62
2023/09/20 08:08:08;;;;;;;27.43;19.17;;;23.20;99.90;;;23.71;64.28;95320.19;5018811;28;20493;-62
2023/09/20 08:10:36;;;;;;;25.07;19.90;;;23.30;99.90;;;23.83;64.61;95325.72;5015277;28;20535;-61
2023/09/20 08:13:05;;;;;;;28.07;18.20;;;23.40;99.90;;;23.94;64.65;95328.63;5010523;28;20548;-60
2023/09/20 08:15:36;;;;;;;30.03;18.67;;;23.50;99.90;;;24.07;63.57;95326.91;5014252;28;20550;-61
2023/09/20 08:20:50;;;;;;;28.10;18.60;;;23.90;99.90;;;25.04;63.24;95319.53;5008213;28;20918;-60
2023/09/20 09:01:48;;;;;;;20.10;14.23;;;30.30;86.30;;;30.97;47.42;95293.09;5015640;28;21079;-64
2023/09/20 09:04:18;;;;;;;21.00;14.93;;;30.40;86.50;;;31.22;47.62;95291.66;5010723;28;20671;-63
2023/09/20 09:06:45;;;;;;;24.77;14.00;;;30.60;85.70;;;31.49;46.94;95293.47;5012669;28;20620;-61
2023/09/20 09:09:14;;;;;;;15.43;13.33;;;30.80;84.60;;;31.74;46.14;95293.66;5012489;28;20215;-61
2023/09/20 09:11:42;;;;;;;23.97;14.33;;;31.00;82.30;;;31.86;45.79;95290.75;5011121;28;20301;-61
2023/09/20 09:14:10;;;;;;;19.23;12.30;;;31.20;81.30;;;32.01;44.77;95287.28;5008141;28;20233;-62
2023/09/20 09:16:38;;;;;;;19.80;13.87;;;31.40;79.80;;;32.20;45.08;95278.69;5008566;28;20202;-60
2023/09/20 09:19:07;;;;;;;11.73;9.27;;;31.50;78.60;;;32.36;44.69;95285.78;5016355;28;20224;-60
2023/09/20 09:21:35;;;;;;;9.43;8.43;;;31.70;77.30;;;32.56;44.14;95281.50;5012306;28;20253;-63
2023/09/20 09:24:03;;;;;;;15.15;9.43;;;31.90;76.40;;;32.76;43.48;95276.13;5021818;28;20308;-63
2023/09/20 09:26:32;;;;;;;12.25;9.40;;;32.10;75.50;;;32.98;43.00;95285.94;5018504;28;20202;-61
2023/09/20 09:29:00;;;;;;;9.55;8.60;;;32.30;74.30;;;33.19;42.55;95287.63;5010792;28;20707;-62
2023/09/20 09:31:30;;;;;;;18.27;9.32;;;32.50;73.30;;;33.33;42.81;95278.91;5015859;28;20654;-61
2023/09/20 09:34:02;;;;;;;13.35;9.70;;;32.60;71.30;;;33.44;42.03;95271.53;5015059;28;20260;-62
2023/09/20 09:36:29;;;;;;;10.50;7.13;;;32.80;71.40;;;33.46;42.31;95270.13;5007430;28;20234;-63
2023/09/20 09:39:09;;;;;;;9.38;7.30;;;32.80;69.80;;;33.45;41.20;95273.97;5018232;28;20228;-61
2023/09/20 09:41:43;;;;;;;11.00;8.93;;;32.80;68.50;;;33.46;41.84;95263.88;5013157;28;20237;-65
2023/09/20 09:44:10;;;;;;;8.65;6.70;;;32.80;68.80;;;33.59;41.17;95263.31;5023150;28;20226;-61
2023/09/20 09:46:39;;;;;;;8.68;5.65;;;32.90;68.90;;;33.76;41.47;95260.31;5020185;28;20286;-63
2023/09/20 09:49:10;;;;;;;12.10;6.25;;;33.00;68.10;;;33.83;41.02;95265.47;5020852;28;20309;-62
2023/09/20 09:51:42;;;;;;;12.05;7.47;;;33.10;66.20;;;33.86;40.65;95267.63;5021650;28;20198;-60
2023/09/20 09:54:11;;;;;;;13.85;8.07;;;33.10;65.70;;;33.77;39.57;95267.38;5015228;28;20321;-60
2023/09/20 09:56:38;;;;;;;9.65;6.97;;;33.10;64.50;;;33.52;39.00;95260.84;5017181;28;20208;-62
2023/09/20 09:59:07;;;;;;;8.80;7.03;;;33.00;63.00;;;33.29;40.06;95251.34;5015527;28;20246;-61
2023/09/20 10:01:36;;;;;;;5.95;5.35;;;32.80;63.60;;;33.19;40.29;95248.66;5021997;28;20225;-61
2023/09/20 10:04:08;;;;;;;7.38;5.18;;;32.70;63.90;;;33.01;39.89;95245.34;5021850;28;20241;-61
2023/09/20 10:06:37;;;;;;;10.25;5.93;;;32.50;63.60;;;32.95;40.36;95256.50;5018025;28;20288;-61
2023/09/20 10:09:11;;;;;;;7.75;4.70;;;32.40;64.30;;;33.16;40.18;95240.97;5022994;28;20228;-63
2023/09/20 10:11:42;;;;;;;7.28;4.93;;;32.40;64.30;;;33.41;39.94;95238.22;5017735;28;20287;-62
2023/09/20 10:14:11;;;;;;;4.70;4.30;;;32.60;64.40;;;33.64;39.54;95240.66;5020007;28;20256;-60
2023/09/20 10:16:42;;;;;;;11.45;5.30;;;32.80;64.00;;;33.84;40.21;95246.06;5022926;28;20285;-61
2023/09/20 10:19:10;;;;;;;8.20;4.60;;;33.10;63.90;;;34.01;39.45;95240.28;5014975;28;20218;-63
2023/09/20 10:21:40;;;;;;;6.65;4.60;;;33.20;62.90;;;34.16;39.57;95236.69;5021171;28;20221;-61
2023/09/20 10:24:14;;;;;;;5.28;4.78;;;33.40;62.40;;;34.29;38.94;95229.81;5012606;28;20226;-62
2023/09/20 10:26:41;;;;;;;10.93;4.05;;;33.50;62.00;;;34.40;38.70;95227.84;5011055;28;20290;-61
2023/09/20 10:29:25;;;;;;;4.53;4.13;;;33.70;61.10;;;34.40;37.17;95231.38;5012416;28;20222;-62
2023/09/20 10:31:55;;;;;;;5.95;3.45;;;33.70;58.70;;;34.32;37.21;95233.88;5013536;28;20637;-61
2023/09/20 10:34:23;;;;;;;5.85;3.28;;;33.70;58.80;;;34.23;37.63;95223.50;5009429;28;20310;-61
2023/09/20 10:36:52;;;;;;;8.18;3.30;;;33.60;58.60;;;34.20;37.36;95221.34;5020305;28;20201;-61
2023/09/20 10:39:23;;;;;;;10.30;4.05;;;33.50;58.10;;;34.26;37.52;95214.78;5018141;28;20241;-62
2023/09/20 10:41:52;;;;;;;4.70;3.45;;;33.50;58.40;;;34.41;37.51;95213.06;5021747;28;20264;-61
2023/09/20 10:44:29;;;;;;;8.07;2.78;;;33.60;58.30;;;34.54;36.67;95208.91;5013185;28;20234;-60
2023/09/20 10:46:58;;;;;;;2.40;2.20;;;33.70;57.20;;;34.58;36.30;95207.22;5015381;28;20205;-61
2023/09/20 10:49:49;;;;;;;4.75;2.63;;;33.80;56.40;;;34.62;34.54;95198.16;5009571;28;20299;-60
2023/09/20 10:52:59;;;;;;;3.00;2.63;;;33.90;54.90;;;34.67;34.28;95186.38;5007582;28;20202;-60
2023/09/20 10:55:36;;;;;;;2.97;2.78;;;33.90;55.50;;;34.65;35.28;95186.66;5007577;28;20242;-61
2023/09/20 10:58:03;;;;;;;3.88;3.05;;;34.00;54.40;;;34.55;35.62;95181.28;5016999;28;20208;-60
2023/09/20 11:00:35;;;;;;;5.57;3.47;;;33.90;54.90;;;34.51;35.12;95174.75;5015633;28;20226;-62